sensor_id;sensor_type;location;lat;lon;timestamp;pressure;altitude;pressure_sealevel;temperature
78961;BMP280;68362;45.970;12.646;2023-09-19T00:01:02;100749.00;;;19.83
78961;BMP280;68362;45.970;12.646;2023-09-19T00:02:13;100750.50;;;19.90
78961;BMP280;68362;45.970;12.646;2023-09-19T00:03:15;100755.56;;;19.96
78961;BMP280;68362;45.970;12.646;2023-09-19T00:04:18;100755.56;;;19.96
78961;BMP280;68362;45.970;12.646;2023-09-19T00:05:26;100755.81;;;19.95
78961;BMP280;68362;45.970;12.646;2023-09-19T00:06:30;100751.56;;;19.94
78961;BMP280;68362;45.970;12.646;2023-09-19T00:07:33;100749.84;;;19.79
78961;BMP280;68362;45.970;12.646;2023-09-19T00:08:38;100753.72;;;19.92
78961;BMP280;68362;45.970;12.646;2023-09-19T00:09:41;100736.56;;;19.98
78961;BMP280;68362;45.970;12.646;2023-09-19T00:10:43;100738.66;;;20.01
78961;BMP280;68362;45.970;12.646;2023-09-19T00:11:46;100736.69;;;19.93
78961;BMP280;68362;45.970;12.646;2023-09-19T00:12:51;100730.03;;;19.90
78961;BMP280;68362;45.970;12.646;2023-09-19T00:13:57;100724.00;;;19.79
78961;BMP280;68362;45.970;12.646;2023-09-19T00:15:02;100726.41;;;19.81
78961;BMP280;68362;45.970;12.646;2023-09-19T00:16:09;100730.31;;;19.89
78961;BMP280;68362;45.970;12.646;2023-09-19T00:17:13;100729.44;;;19.93
78961;BMP280;68362;45.970;12.646;2023-09-19T00:18:16;100730.78;;;19.96
78961;BMP280;68362;45.970;12.646;2023-09-19T00:19:19;100729.16;;;19.95
78961;BMP280;68362;45.970;12.646;2023-09-19T00:20:22;100733.91;;;19.98
78961;BMP280;68362;45.970;12.646;2023-09-19T00:21:28;100728.91;;;19.67
78961;BMP280;68362;45.970;12.646;2023-09-19T00:22:30;100733.13;;;19.73
78961;BMP280;68362;45.970;12.646;2023-09-19T00:23:32;100739.94;;;19.56
78961;BMP280;68362;45.970;12.646;2023-09-19T00:24:35;100737.63;;;19.20
78961;BMP280;68362;45.970;12.646;2023-09-19T00:25:37;100741.66;;;19.12
78961;BMP280;68362;45.970;12.646;2023-09-19T00:26:39;100735.34;;;19.32
78961;BMP280;68362;45.970;12.646;2023-09-19T00:27:42;100730.75;;;19.43
78961;BMP280;68362;45.970;12.646;2023-09-19T00:28:44;100732.34;;;19.44
78961;BMP280;68362;45.970;12.646;2023-09-19T00:29:46;100733.03;;;19.55
78961;BMP280;68362;45.970;12.646;2023-09-19T00:30:48;100731.06;;;19.65
78961;BMP280;68362;45.970;12.646;2023-09-19T00:31:53;100730.00;;;19.66
78961;BMP280;68362;45.970;12.646;2023-09-19T00:32:55;100739.41;;;19.59
78961;BMP280;68362;45.970;12.646;2023-09-19T00:33:58;100740.53;;;19.52
78961;BMP280;68362;45.970;12.646;2023-09-19T00:35:02;100749.72;;;19.65
78961;BMP280;68362;45.970;12.646;2023-09-19T00:36:05;100742.50;;;19.37
78961;BMP280;68362;45.970;12.646;2023-09-19T00:37:07;100740.28;;;19.49
78961;BMP280;68362;45.970;12.646;2023-09-19T00:38:09;100736.75;;;19.59
78961;BMP280;68362;45.970;12.646;2023-09-19T00:39:12;100733.16;;;19.68
78961;BMP280;68362;45.970;12.646;2023-09-19T00:40:15;100727.28;;;19.71
78961;BMP280;68362;45.970;12.646;2023-09-19T00:41:20;100730.47;;;19.73
78961;BMP280;68362;45.970;12.646;2023-09-19T00:42:23;100730.50;;;19.68
78961;BMP280;68362;45.970;12.646;2023-09-19T00:43:25;100723.78;;;19.76
78961;BMP280;68362;45.970;12.646;2023-09-19T00:44:27;100718.88;;;19.59
78961;BMP280;68362;45.970;12.646;2023-09-19T00:45:33;100726.63;;;19.56
78961;BMP280;68362;45.970;12.646;2023-09-19T00:46:38;100720.59;;;19.74
78961;BMP280;68362;45.970;12.646;2023-09-19T00:47:50;100719.03;;;19.73
78961;BMP280;68362;45.970;12.646;2023-09-19T00:48:53;100722.94;;;19.80
78961;BMP280;68362;45.970;12.646;2023-09-19T00:49:56;100723.97;;;19.85
78961;BMP280;68362;45.970;12.646;2023-09-19T00:51:02;100720.16;;;19.91
78961;BMP280;68362;45.970;12.646;2023-09-19T00:52:04;100720.13;;;19.96
78961;BMP280;68362;45.970;12.646;2023-09-19T00:53:07;100723.28;;;19.74
78961;BMP280;68362;45.970;12.646;2023-09-19T00:54:12;100721.34;;;19.79
78961;BMP280;68362;45.970;12.646;2023-09-19T00:55:20;100727.75;;;19.78
78961;BMP280;68362;45.970;12.646;2023-09-19T00:56:22;100726.06;;;19.88
78961;BMP280;68362;45.970;12.646;2023-09-19T00:57:25;100721.31;;;19.85
78961;BMP280;68362;45.970;12.646;2023-09-19T00:58:27;100722.34;;;19.83
78961;BMP280;68362;45.970;12.646;2023-09-19T00:59:34;100719.09;;;19.87
78961;BMP280;68362;45.970;12.646;2023-09-19T01:00:37;100718.16;;;19.77
78961;BMP280;68362;45.970;12.646;2023-09-19T01:01:40;100715.50;;;19.77
78961;BMP280;68362;45.970;12.646;2023-09-19T01:02:43;100716.53;;;19.81
78961;BMP280;68362;45.970;12.646;2023-09-19T01:03:45;100718.72;;;19.74
78961;BMP280;68362;45.970;12.646;2023-09-19T01:04:48;100714.41;;;19.78
78961;BMP280;68362;45.970;12.646;2023-09-19T01:05:50;100718.09;;;19.59
78961;BMP280;68362;45.970;12.646;2023-09-19T01:06:53;100718.66;;;19.56
78961;BMP280;68362;45.970;12.646;2023-09-19T01:07:55;100710.88;;;19.59
78961;BMP280;68362;45.970;12.646;2023-09-19T01:08:58;100713.19;;;19.42
78961;BMP280;68362;45.970;12.646;2023-09-19T01:10:05;100715.69;;;19.57
78961;BMP280;68362;45.970;12.646;2023-09-19T01:11:20;100718.88;;;19.59
78961;BMP280;68362;45.970;12.646;2023-09-19T01:12:54;100723.59;;;19.67
78961;BMP280;68362;45.970;12.646;2023-09-19T01:14:02;100722.66;;;19.53
78961;BMP280;68362;45.970;12.646;2023-09-19T01:17:06;100727.00;;;19.73
78961;BMP280;68362;45.970;12.646;2023-09-19T01:18:21;100732.72;;;19.61
78961;BMP280;68362;45.970;12.646;2023-09-19T01:22:10;100726.28;;;19.38
78961;BMP280;68362;45.970;12.646;2023-09-19T01:23:23;100729.88;;;19.52
78961;BMP280;68362;45.970;12.646;2023-09-19T01:26:07;100736.91;;;19.43
78961;BMP280;68362;45.970;12.646;2023-09-19T01:27:25;100729.06;;;19.52
78961;BMP280;68362;45.970;12.646;2023-09-19T01:30:17;100738.63;;;19.58
78961;BMP280;68362;45.970;12.646;2023-09-19T01:31:21;100732.25;;;19.54
78961;BMP280;68362;45.970;12.646;2023-09-19T01:32:26;100735.31;;;19.66
78961;BMP280;68362;45.970;12.646;2023-09-19T01:33:28;100741.19;;;19.63
78961;BMP280;68362;45.970;12.646;2023-09-19T01:34:54;100735.31;;;19.66
78961;BMP280;68362;45.970;12.646;2023-09-19T01:35:58;100739.63;;;19.62
78961;BMP280;68362;45.970;12.646;2023-09-19T01:37:00;100738.25;;;19.70
78961;BMP280;68362;45.970;12.646;2023-09-19T01:38:04;100729.94;;;19.71
78961;BMP280;68362;45.970;12.646;2023-09-19T01:39:08;100738.41;;;19.78
78961;BMP280;68362;45.970;12.646;2023-09-19T01:40:14;100734.25;;;19.67
78961;BMP280;68362;45.970;12.646;2023-09-19T01:41:26;100736.63;;;19.69
78961;BMP280;68362;45.970;12.646;2023-09-19T01:42:42;100743.25;;;19.71
78961;BMP280;68362;45.970;12.646;2023-09-19T01:43:45;100739.53;;;19.72
78961;BMP280;68362;45.970;12.646;2023-09-19T01:44:59;100742.47;;;19.71
78961;BMP280;68362;45.970;12.646;2023-09-19T01:46:19;100736.13;;;19.67
78961;BMP280;68362;45.970;12.646;2023-09-19T01:47:28;100733.16;;;19.68
78961;BMP280;68362;45.970;12.646;2023-09-19T01:49:02;100732.53;;;19.18
78961;BMP280;68362;45.970;12.646;2023-09-19T01:50:26;100729.69;;;19.05
78961;BMP280;68362;45.970;12.646;2023-09-19T01:51:37;100726.91;;;18.86
78961;BMP280;68362;45.970;12.646;2023-09-19T01:52:48;100727.13;;;19.00
78961;BMP280;68362;45.970;12.646;2023-09-19T01:54:03;100733.03;;;18.86
78961;BMP280;68362;45.970;12.646;2023-09-19T01:55:09;100734.38;;;18.84
78961;BMP280;68362;45.970;12.646;2023-09-19T01:56:16;100733.31;;;18.85
78961;BMP280;68362;45.970;12.646;2023-09-19T01:57:27;100739.31;;;19.06
78961;BMP280;68362;45.970;12.646;2023-09-19T01:58:39;100742.69;;;19.16
78961;BMP280;68362;45.970;12.646;2023-09-19T01:59:50;100739.53;;;19.09
78961;BMP280;68362;45.970;12.646;2023-09-19T02:00:54;100740.47;;;19.29
78961;BMP280;68362;45.970;12.646;2023-09-19T02:01:58;100743.63;;;19.31
78961;BMP280;68362;45.970;12.646;2023-09-19T02:03:02;100745.66;;;19.44
78961;BMP280;68362;45.970;12.646;2023-09-19T02:04:05;100756.78;;;19.51
78961;BMP280;68362;45.970;12.646;2023-09-19T02:05:07;100750.81;;;19.59
78961;BMP280;68362;45.970;12.646;2023-09-19T02:06:14;100744.41;;;19.60
78961;BMP280;68362;45.970;12.646;2023-09-19T02:07:17;100742.66;;;19.50
78961;BMP280;68362;45.970;12.646;2023-09-19T02:08:21;100739.91;;;19.61
78961;BMP280;68362;45.970;12.646;2023-09-19T02:09:26;100739.66;;;19.57
78961;BMP280;68362;45.970;12.646;2023-09-19T02:10:28;100735.41;;;19.56
78961;BMP280;68362;45.970;12.646;2023-09-19T02:11:30;100738.06;;;19.61
78961;BMP280;68362;45.970;12.646;2023-09-19T02:12:33;100737.00;;;19.57
78961;BMP280;68362;45.970;12.646;2023-09-19T02:13:37;100735.47;;;19.51
78961;BMP280;68362;45.970;12.646;2023-09-19T02:14:40;100732.63;;;19.42
78961;BMP280;68362;45.970;12.646;2023-09-19T02:15:42;100732.91;;;19.41
78961;BMP280;68362;45.970;12.646;2023-09-19T02:16:47;100732.91;;;19.41
78961;BMP280;68362;45.970;12.646;2023-09-19T02:17:49;100738.00;;;19.37
78961;BMP280;68362;45.970;12.646;2023-09-19T02:18:51;100739.66;;;19.28
78961;BMP280;68362;45.970;12.646;2023-09-19T02:19:54;100742.28;;;19.33
78961;BMP280;68362;45.970;12.646;2023-09-19T02:20:57;100736.91;;;19.43
78961;BMP280;68362;45.970;12.646;2023-09-19T02:22:00;100739.03;;;19.36
78961;BMP280;68362;45.970;12.646;2023-09-19T02:23:05;100738.81;;;19.33
78961;BMP280;68362;45.970;12.646;2023-09-19T02:24:07;100741.81;;;19.26
78961;BMP280;68362;45.970;12.646;2023-09-19T02:25:10;100731.59;;;19.38
78961;BMP280;68362;45.970;12.646;2023-09-19T02:26:13;100740.88;;;19.46
78961;BMP280;68362;45.970;12.646;2023-09-19T02:27:15;100738.81;;;19.33
78961;BMP280;68362;45.970;12.646;2023-09-19T02:28:18;100741.03;;;19.20
78961;BMP280;68362;45.970;12.646;2023-09-19T02:29:20;100739.59;;;19.38
78961;BMP280;68362;45.970;12.646;2023-09-19T02:30:24;100739.25;;;19.45
78961;BMP280;68362;45.970;12.646;2023-09-19T02:31:29;100737.13;;;19.47
78961;BMP280;68362;45.970;12.646;2023-09-19T02:32:32;100741.03;;;19.26
78961;BMP280;68362;45.970;12.646;2023-09-19T02:33:37;100742.06;;;19.24
78961;BMP280;68362;45.970;12.646;2023-09-19T02:34:40;100738.00;;;19.37
78961;BMP280;68362;45.970;12.646;2023-09-19T02:35:43;100732.41;;;19.34
78961;BMP280;68362;45.970;12.646;2023-09-19T02:36:45;100733.34;;;19.48
78961;BMP280;68362;45.970;12.646;2023-09-19T02:37:49;100743.47;;;19.51
78961;BMP280;68362;45.970;12.646;2023-09-19T02:38:51;100737.56;;;19.54
78961;BMP280;68362;45.970;12.646;2023-09-19T02:39:53;100745.81;;;19.58
78961;BMP280;68362;45.970;12.646;2023-09-19T02:40:55;100747.81;;;19.37
78961;BMP280;68362;45.970;12.646;2023-09-19T02:41:58;100752.47;;;19.26
78961;BMP280;68362;45.970;12.646;2023-09-19T02:43:00;100748.09;;;19.40
78961;BMP280;68362;45.970;12.646;2023-09-19T02:44:02;100750.13;;;19.48
78961;BMP280;68362;45.970;12.646;2023-09-19T02:45:04;100750.09;;;19.53
78961;BMP280;68362;45.970;12.646;2023-09-19T02:46:08;100750.47;;;19.37
78961;BMP280;68362;45.970;12.646;2023-09-19T02:47:10;100750.31;;;19.28
78961;BMP280;68362;45.970;12.646;2023-09-19T02:48:12;100751.34;;;19.32
78961;BMP280;68362;45.970;12.646;2023-09-19T02:49:14;100745.50;;;19.30
78961;BMP280;68362;45.970;12.646;2023-09-19T02:50:17;100747.00;;;19.41
78961;BMP280;68362;45.970;12.646;2023-09-19T02:51:19;100753.63;;;19.44
78961;BMP280;68362;45.970;12.646;2023-09-19T02:52:22;100750.13;;;19.48
78961;BMP280;68362;45.970;12.646;2023-09-19T02:53:26;100746.41;;;19.49
78961;BMP280;68362;45.970;12.646;2023-09-19T02:54:29;100749.28;;;19.58
78961;BMP280;68362;45.970;12.646;2023-09-19T02:55:31;100750.81;;;19.59
78961;BMP280;68362;45.970;12.646;2023-09-19T02:56:33;100757.75;;;19.60
78961;BMP280;68362;45.970;12.646;2023-09-19T02:57:37;100750.81;;;19.64
78961;BMP280;68362;45.970;12.646;2023-09-19T02:58:42;100751.63;;;19.60
78961;BMP280;68362;45.970;12.646;2023-09-19T02:59:44;100743.19;;;19.52
78961;BMP280;68362;45.970;12.646;2023-09-19T03:00:46;100750.22;;;19.43
78961;BMP280;68362;45.970;12.646;2023-09-19T03:01:49;100754.19;;;19.41
78961;BMP280;68362;45.970;12.646;2023-09-19T03:02:56;100747.75;;;19.13
78961;BMP280;68362;45.970;12.646;2023-09-19T03:03:58;100755.38;;;19.24
78961;BMP280;68362;45.970;12.646;2023-09-19T03:05:00;100752.09;;;19.38
78961;BMP280;68362;45.970;12.646;2023-09-19T03:06:05;100752.91;;;19.38
78961;BMP280;68362;45.970;12.646;2023-09-19T03:07:08;100764.88;;;19.36
78961;BMP280;68362;45.970;12.646;2023-09-19T03:08:14;100753.72;;;19.34
78961;BMP280;68362;45.970;12.646;2023-09-19T03:09:16;100754.34;;;19.26
78961;BMP280;68362;45.970;12.646;2023-09-19T03:10:19;100755.16;;;19.21
78961;BMP280;68362;45.970;12.646;2023-09-19T03:11:22;100761.00;;;19.23
78961;BMP280;68362;45.970;12.646;2023-09-19T03:12:26;100762.38;;;19.15
78961;BMP280;68362;45.970;12.646;2023-09-19T03:13:28;100753.50;;;19.25
78961;BMP280;68362;45.970;12.646;2023-09-19T03:14:33;100763.91;;;19.27
78961;BMP280;68362;45.970;12.646;2023-09-19T03:15:41;100767.94;;;19.19
78961;BMP280;68362;45.970;12.646;2023-09-19T03:16:45;100764.25;;;19.20
78961;BMP280;68362;45.970;12.646;2023-09-19T03:17:48;100761.59;;;19.15
78961;BMP280;68362;45.970;12.646;2023-09-19T03:18:51;100758.09;;;19.19
78961;BMP280;68362;45.970;12.646;2023-09-19T03:19:53;100762.97;;;19.07
78961;BMP280;68362;45.970;12.646;2023-09-19T03:20:56;100760.34;;;19.02
78961;BMP280;68362;45.970;12.646;2023-09-19T03:21:58;100747.50;;;19.09
78961;BMP280;68362;45.970;12.646;2023-09-19T03:23:00;100746.31;;;18.97
78961;BMP280;68362;45.970;12.646;2023-09-19T03:24:03;100750.84;;;18.86
78961;BMP280;68362;45.970;12.646;2023-09-19T03:25:07;100746.31;;;18.97
78961;BMP280;68362;45.970;12.646;2023-09-19T03:26:09;100750.75;;;19.01
78961;BMP280;68362;45.970;12.646;2023-09-19T03:27:12;100742.19;;;19.09
78961;BMP280;68362;45.970;12.646;2023-09-19T03:28:18;100744.19;;;19.28
78961;BMP280;68362;45.970;12.646;2023-09-19T03:29:20;100747.03;;;19.02
78961;BMP280;68362;45.970;12.646;2023-09-19T03:30:22;100743.78;;;19.10
78961;BMP280;68362;45.970;12.646;2023-09-19T03:31:24;100744.66;;;19.01
78961;BMP280;68362;45.970;12.646;2023-09-19T03:32:27;100739.81;;;19.08
78961;BMP280;68362;45.970;12.646;2023-09-19T03:33:29;100743.09;;;19.00
78961;BMP280;68362;45.970;12.646;2023-09-19T03:34:33;100745.13;;;19.08
78961;BMP280;68362;45.970;12.646;2023-09-19T03:35:38;100746.44;;;19.10
78961;BMP280;68362;45.970;12.646;2023-09-19T03:36:42;100742.13;;;19.19
78961;BMP280;68362;45.970;12.646;2023-09-19T03:37:44;100738.78;;;19.04
78961;BMP280;68362;45.970;12.646;2023-09-19T03:38:46;100738.56;;;18.95
78961;BMP280;68362;45.970;12.646;2023-09-19T03:39:48;100737.19;;;19.03
78961;BMP280;68362;45.970;12.646;2023-09-19T03:40:51;100741.00;;;18.86
78961;BMP280;68362;45.970;12.646;2023-09-19T03:41:53;100737.44;;;19.01
78961;BMP280;68362;45.970;12.646;2023-09-19T03:42:55;100735.97;;;18.85
78961;BMP280;68362;45.970;12.646;2023-09-19T03:43:57;100738.69;;;18.80
78961;BMP280;68362;45.970;12.646;2023-09-19T03:45:00;100740.91;;;19.02
78961;BMP280;68362;45.970;12.646;2023-09-19T03:46:06;100745.75;;;18.94
78961;BMP280;68362;45.970;12.646;2023-09-19T03:47:09;100746.91;;;18.78
78961;BMP280;68362;45.970;12.646;2023-09-19T03:48:12;100750.34;;;18.84
78961;BMP280;68362;45.970;12.646;2023-09-19T03:49:15;100748.66;;;18.93
78961;BMP280;68362;45.970;12.646;2023-09-19T03:50:17;100750.97;;;19.05
78961;BMP280;68362;45.970;12.646;2023-09-19T03:51:19;100748.31;;;19.10
78961;BMP280;68362;45.970;12.646;2023-09-19T03:52:21;100752.03;;;19.14
78961;BMP280;68362;45.970;12.646;2023-09-19T03:53:24;100746.66;;;19.19
78961;BMP280;68362;45.970;12.646;2023-09-19T03:54:26;100749.09;;;19.10
78961;BMP280;68362;45.970;12.646;2023-09-19T03:55:28;100751.28;;;19.08
78961;BMP280;68362;45.970;12.646;2023-09-19T03:56:32;100749.09;;;19.10
78961;BMP280;68362;45.970;12.646;2023-09-19T03:57:34;100756.53;;;19.13
78961;BMP280;68362;45.970;12.646;2023-09-19T03:58:37;100757.09;;;19.10
78961;BMP280;68362;45.970;12.646;2023-09-19T03:59:41;100754.91;;;19.22
78961;BMP280;68362;45.970;12.646;2023-09-19T04:00:44;100764.47;;;19.23
78961;BMP280;68362;45.970;12.646;2023-09-19T04:01:47;100759.09;;;19.29
78961;BMP280;68362;45.970;12.646;2023-09-19T04:02:51;100758.00;;;19.35
78961;BMP280;68362;45.970;12.646;2023-09-19T04:03:53;100755.22;;;19.45
78961;BMP280;68362;45.970;12.646;2023-09-19T04:04:55;100756.00;;;19.45
78961;BMP280;68362;45.970;12.646;2023-09-19T04:05:58;100754.13;;;19.51
78961;BMP280;68362;45.970;12.646;2023-09-19T04:07:00;100750.59;;;19.56
78961;BMP280;68362;45.970;12.646;2023-09-19T04:08:02;100765.00;;;19.55
78961;BMP280;68362;45.970;12.646;2023-09-19T04:09:04;100752.22;;;19.51
78961;BMP280;68362;45.970;12.646;2023-09-19T04:10:09;100743.47;;;19.51
78961;BMP280;68362;45.970;12.646;2023-09-19T04:11:13;100743.38;;;19.61
78961;BMP280;68362;45.970;12.646;2023-09-19T04:12:15;100748.91;;;19.36
78961;BMP280;68362;45.970;12.646;2023-09-19T04:13:20;100746.91;;;19.22
78961;BMP280;68362;45.970;12.646;2023-09-19T04:14:23;100739.94;;;19.32
78961;BMP280;68362;45.970;12.646;2023-09-19T04:15:25;100748.19;;;19.25
78961;BMP280;68362;45.970;12.646;2023-09-19T04:16:27;100739.97;;;19.21
78961;BMP280;68362;45.970;12.646;2023-09-19T04:17:29;100748.53;;;19.13
78961;BMP280;68362;45.970;12.646;2023-09-19T04:18:33;100743.16;;;19.23
78961;BMP280;68362;45.970;12.646;2023-09-19T04:19:35;100752.38;;;19.02
78961;BMP280;68362;45.970;12.646;2023-09-19T04:20:37;100747.56;;;19.04
78961;BMP280;68362;45.970;12.646;2023-09-19T04:21:39;100753.97;;;19.03
78961;BMP280;68362;45.970;12.646;2023-09-19T04:22:43;100759.63;;;18.91
78961;BMP280;68362;45.970;12.646;2023-09-19T04:23:45;100761.03;;;18.74
78961;BMP280;68362;45.970;12.646;2023-09-19T04:24:47;100766.91;;;18.76
78961;BMP280;68362;45.970;12.646;2023-09-19T04:25:49;100764.91;;;18.47
78961;BMP280;68362;45.970;12.646;2023-09-19T04:26:52;100763.22;;;18.61
78961;BMP280;68362;45.970;12.646;2023-09-19T04:27:54;100764.25;;;18.65
78961;BMP280;68362;45.970;12.646;2023-09-19T04:28:56;100762.63;;;18.75
78961;BMP280;68362;45.970;12.646;2023-09-19T04:29:59;100766.00;;;18.90
78961;BMP280;68362;45.970;12.646;2023-09-19T04:31:01;100763.28;;;19.01
78961;BMP280;68362;45.970;12.646;2023-09-19T04:32:03;100759.50;;;19.07
78961;BMP280;68362;45.970;12.646;2023-09-19T04:33:06;100760.53;;;19.16
78961;BMP280;68362;45.970;12.646;2023-09-19T04:34:09;100763.66;;;19.23
78961;BMP280;68362;45.970;12.646;2023-09-19T04:35:12;100762.59;;;19.24
78961;BMP280;68362;45.970;12.646;2023-09-19T04:36:14;100764.41;;;19.29
78961;BMP280;68362;45.970;12.646;2023-09-19T04:37:37;100770.59;;;19.24
78961;BMP280;68362;45.970;12.646;2023-09-19T04:38:40;100771.41;;;19.19
78961;BMP280;68362;45.970;12.646;2023-09-19T04:39:46;100772.75;;;19.17
78961;BMP280;68362;45.970;12.646;2023-09-19T04:40:48;100771.66;;;19.23
78961;BMP280;68362;45.970;12.646;2023-09-19T04:41:51;100771.88;;;19.27
78961;BMP280;68362;45.970;12.646;2023-09-19T04:42:54;100770.59;;;19.24
78961;BMP280;68362;45.970;12.646;2023-09-19T04:43:59;100769.28;;;19.16
78961;BMP280;68362;45.970;12.646;2023-09-19T04:45:02;100778.84;;;19.22
78961;BMP280;68362;45.970;12.646;2023-09-19T04:46:05;100771.88;;;19.27
78961;BMP280;68362;45.970;12.646;2023-09-19T04:47:08;100780.06;;;18.96
78961;BMP280;68362;45.970;12.646;2023-09-19T04:48:11;100782.44;;;18.98
78961;BMP280;68362;45.970;12.646;2023-09-19T04:49:13;100782.66;;;19.11
78961;BMP280;68362;45.970;12.646;2023-09-19T04:50:16;100790.63;;;19.11
78961;BMP280;68362;45.970;12.646;2023-09-19T04:51:18;100782.31;;;19.18
78961;BMP280;68362;45.970;12.646;2023-09-19T04:52:22;100787.41;;;19.14
78961;BMP280;68362;45.970;12.646;2023-09-19T04:53:25;100787.88;;;19.21
78961;BMP280;68362;45.970;12.646;2023-09-19T04:54:27;100789.22;;;19.19
78961;BMP280;68362;45.970;12.646;2023-09-19T04:55:29;100780.94;;;19.26
78961;BMP280;68362;45.970;12.646;2023-09-19T04:56:32;100787.88;;;19.21
78961;BMP280;68362;45.970;12.646;2023-09-19T04:57:35;100786.78;;;19.28
78961;BMP280;68362;45.970;12.646;2023-09-19T04:58:38;100790.72;;;19.35
78961;BMP280;68362;45.970;12.646;2023-09-19T04:59:40;100790.97;;;19.34
78961;BMP280;68362;45.970;12.646;2023-09-19T05:00:43;100794.31;;;19.15
78961;BMP280;68362;45.970;12.646;2023-09-19T05:01:45;100789.00;;;19.15
78961;BMP280;68362;45.970;12.646;2023-09-19T05:02:52;100797.25;;;19.14
78961;BMP280;68362;45.970;12.646;2023-09-19T05:03:55;100795.34;;;19.19
78961;BMP280;68362;45.970;12.646;2023-09-19T05:04:57;100792.63;;;19.24
78961;BMP280;68362;45.970;12.646;2023-09-19T05:06:02;100801.41;;;19.30
78961;BMP280;68362;45.970;12.646;2023-09-19T05:07:04;100786.72;;;19.38
78961;BMP280;68362;45.970;12.646;2023-09-19T05:08:06;100794.41;;;19.39
78961;BMP280;68362;45.970;12.646;2023-09-19T05:09:10;100791.19;;;19.42
78961;BMP280;68362;45.970;12.646;2023-09-19T05:10:13;100787.72;;;19.42
78961;BMP280;68362;45.970;12.646;2023-09-19T05:11:16;100790.38;;;19.47
78961;BMP280;68362;45.970;12.646;2023-09-19T05:12:18;100788.22;;;19.49
78961;BMP280;68362;45.970;12.646;2023-09-19T05:13:22;100781.09;;;19.39
78961;BMP280;68362;45.970;12.646;2023-09-19T05:14:25;100783.00;;;19.34
78961;BMP280;68362;45.970;12.646;2023-09-19T05:15:27;100783.03;;;19.29
78961;BMP280;68362;45.970;12.646;2023-09-19T05:16:30;100785.22;;;19.21
78961;BMP280;68362;45.970;12.646;2023-09-19T05:17:34;100782.66;;;19.11
78961;BMP280;68362;45.970;12.646;2023-09-19T05:18:36;100783.84;;;18.85
78961;BMP280;68362;45.970;12.646;2023-09-19T05:19:38;100781.78;;;18.72
78961;BMP280;68362;45.970;12.646;2023-09-19T05:20:41;100789.69;;;18.92
78961;BMP280;68362;45.970;12.646;2023-09-19T05:21:44;100790.13;;;19.04
78961;BMP280;68362;45.970;12.646;2023-09-19T05:22:46;100792.97;;;19.18
78961;BMP280;68362;45.970;12.646;2023-09-19T05:23:48;100796.09;;;19.25
78961;BMP280;68362;45.970;12.646;2023-09-19T05:24:51;100790.75;;;19.30
78961;BMP280;68362;45.970;12.646;2023-09-19T05:25:54;100797.38;;;19.38
78961;BMP280;68362;45.970;12.646;2023-09-19T05:26:59;100804.81;;;19.36
78961;BMP280;68362;45.970;12.646;2023-09-19T05:28:01;100797.59;;;19.41
78961;BMP280;68362;45.970;12.646;2023-09-19T05:29:06;100800.50;;;19.45
78961;BMP280;68362;45.970;12.646;2023-09-19T05:30:10;100807.38;;;19.51
78961;BMP280;68362;45.970;12.646;2023-09-19T05:31:12;100806.34;;;19.47
78961;BMP280;68362;45.970;12.646;2023-09-19T05:32:14;100805.34;;;19.38
78961;BMP280;68362;45.970;12.646;2023-09-19T05:33:17;100805.06;;;19.39
78961;BMP280;68362;45.970;12.646;2023-09-19T05:34:20;100813.28;;;19.43
78961;BMP280;68362;45.970;12.646;2023-09-19T05:35:23;100810.63;;;19.43
78961;BMP280;68362;45.970;12.646;2023-09-19T05:36:25;100813.34;;;19.38
78961;BMP280;68362;45.970;12.646;2023-09-19T05:37:27;100817.81;;;19.42
78961;BMP280;68362;45.970;12.646;2023-09-19T05:38:29;100816.81;;;19.33
78961;BMP280;68362;45.970;12.646;2023-09-19T05:39:31;100821.09;;;19.34
78961;BMP280;68362;45.970;12.646;2023-09-19T05:40:33;100825.47;;;19.10
78961;BMP280;68362;45.970;12.646;2023-09-19T05:41:36;100824.97;;;19.08
78961;BMP280;68362;45.970;12.646;2023-09-19T05:42:38;100823.59;;;19.10
78961;BMP280;68362;45.970;12.646;2023-09-19T05:43:41;100824.88;;;19.23
78961;BMP280;68362;45.970;12.646;2023-09-19T05:44:44;100829.41;;;19.22
78961;BMP280;68362;45.970;12.646;2023-09-19T05:45:46;100833.13;;;19.21
78961;BMP280;68362;45.970;12.646;2023-09-19T05:46:48;100827.84;;;19.16
78961;BMP280;68362;45.970;12.646;2023-09-19T05:47:52;100834.75;;;19.17
78961;BMP280;68362;45.970;12.646;2023-09-19T05:48:57;100833.13;;;19.27
78961;BMP280;68362;45.970;12.646;2023-09-19T05:50:00;100827.22;;;19.30
78961;BMP280;68362;45.970;12.646;2023-09-19T05:51:02;100842.06;;;19.36
78961;BMP280;68362;45.970;12.646;2023-09-19T05:52:05;100837.25;;;19.43
78961;BMP280;68362;45.970;12.646;2023-09-19T05:53:08;100838.31;;;19.47
78961;BMP280;68362;45.970;12.646;2023-09-19T05:54:13;100844.97;;;19.44
78961;BMP280;68362;45.970;12.646;2023-09-19T05:55:15;100843.63;;;19.47
78961;BMP280;68362;45.970;12.646;2023-09-19T05:56:17;100847.84;;;19.53
78961;BMP280;68362;45.970;12.646;2023-09-19T05:57:21;100846.81;;;19.49
78961;BMP280;68362;45.970;12.646;2023-09-19T05:58:24;100849.97;;;19.51
78961;BMP280;68362;45.970;12.646;2023-09-19T05:59:26;100839.81;;;19.58
78961;BMP280;68362;45.970;12.646;2023-09-19T06:00:28;100844.66;;;19.51
78961;BMP280;68362;45.970;12.646;2023-09-19T06:01:31;100842.97;;;19.60
78961;BMP280;68362;45.970;12.646;2023-09-19T06:02:37;100848.28;;;19.60
78961;BMP280;68362;45.970;12.646;2023-09-19T06:03:40;100841.94;;;19.56
78961;BMP280;68362;45.970;12.646;2023-09-19T06:04:42;100841.63;;;19.63
78961;BMP280;68362;45.970;12.646;2023-09-19T06:05:44;100840.28;;;19.65
78961;BMP280;68362;45.970;12.646;2023-09-19T06:06:47;100847.25;;;19.61